createdAt,value
2023-05-09T00:01:36.106Z,43.90
2023-05-09T00:06:41.117Z,36.75
2023-05-09T00:11:45.155Z,38.70
2023-05-09T00:16:49.207Z,31.98
2023-05-09T00:21:53.048Z,25.85
2023-05-09T00:26:56.957Z,23.33
2023-05-09T00:32:01.195Z,22.25
2023-05-09T00:37:05.143Z,22.70
2023-05-09T00:42:09.769Z,25.77
2023-05-09T00:47:13.656Z,22.77
2023-05-09T00:52:18.508Z,15.15
2023-05-09T00:57:23.865Z,13.82
2023-05-09T01:02:28.471Z,13.20
2023-05-09T01:07:53.654Z,11.98
2023-05-09T01:13:16.781Z,11.60
2023-05-09T01:18:32.957Z,10.32
2023-05-09T01:23:45.959Z,10.02
2023-05-09T01:29:28.811Z,11.73
2023-05-09T01:34:36.144Z,8.82
2023-05-09T01:39:43.407Z,14.50
2023-05-09T01:44:48.638Z,10.60
2023-05-09T01:49:54.931Z,10.27
2023-05-09T01:55:02.363Z,12.20
2023-05-09T02:00:10.900Z,9.15
2023-05-09T02:05:19.364Z,10.20
2023-05-09T02:10:26.078Z,11.13
2023-05-09T02:15:31.265Z,10.15
2023-05-09T02:20:37.953Z,9.43
2023-05-09T02:25:42.356Z,9.48
2023-05-09T02:30:48.177Z,8.65
2023-05-09T02:35:53.496Z,8.95
2023-05-09T02:40:57.551Z,7.78
2023-05-09T02:46:03.615Z,7.78
2023-05-09T02:51:07.460Z,6.50
2023-05-09T02:56:11.699Z,7.30
2023-05-09T03:01:15.740Z,7.05
2023-05-09T03:06:19.849Z,7.68
2023-05-09T03:11:24.083Z,6.72
2023-05-09T03:16:28.636Z,6.50
2023-05-09T03:21:33.710Z,6.55
2023-05-09T03:26:38.368Z,4.80
2023-05-09T03:31:43.285Z,5.90
2023-05-09T03:36:47.464Z,4.13
2023-05-09T03:41:52.326Z,4.10
2023-05-09T03:46:56.384Z,4.50
2023-05-09T03:52:01.695Z,4.05
2023-05-09T03:57:08.253Z,4.10
2023-05-09T04:02:13.102Z,3.78
2023-05-09T04:07:17.127Z,6.05
2023-05-09T04:12:23.380Z,5.32
2023-05-09T04:17:27.884Z,4.95
2023-05-09T04:22:32.314Z,5.05
2023-05-09T04:27:36.837Z,9.02
2023-05-09T04:32:46.490Z,5.63
2023-05-09T04:37:52.673Z,5.55
2023-05-09T04:42:58.034Z,5.13
2023-05-09T04:48:05.141Z,4.70
2023-05-09T04:53:10.034Z,3.90
2023-05-09T04:58:14.239Z,4.55
2023-05-09T05:03:19.783Z,5.00
2023-05-09T05:08:23.735Z,4.60
2023-05-09T05:13:27.964Z,4.55
2023-05-09T05:18:35.515Z,4.28
2023-05-09T05:23:40.080Z,4.28
2023-05-09T05:28:44.633Z,3.58
2023-05-09T05:33:50.283Z,3.90
2023-05-09T05:38:54.476Z,3.53
2023-05-09T05:43:58.555Z,4.03
2023-05-09T05:49:02.617Z,4.47
2023-05-09T05:54:06.574Z,5.55
2023-05-09T05:59:13.528Z,5.68
2023-05-09T06:04:18.917Z,4.72
2023-05-09T06:09:22.860Z,5.63
2023-05-09T06:14:26.812Z,3.90
2023-05-09T06:19:30.898Z,3.80
2023-05-09T06:24:36.258Z,5.25
2023-05-09T06:29:41.086Z,4.00
2023-05-09T06:34:45.067Z,4.82
2023-05-09T06:39:49.267Z,4.00
2023-05-09T06:44:53.539Z,3.70
2023-05-09T06:49:57.356Z,5.25
2023-05-09T06:55:01.304Z,3.55
2023-05-09T07:00:07.157Z,3.28
2023-05-09T07:05:11.631Z,3.67
2023-05-09T07:10:15.700Z,4.30
2023-05-09T07:15:32.460Z,4.28
2023-05-09T07:20:43.631Z,4.50
2023-05-09T07:25:47.461Z,4.85
2023-05-09T07:30:51.901Z,4.28
2023-05-09T07:35:56.321Z,5.57
2023-05-09T07:41:00.350Z,7.13
2023-05-09T07:46:04.672Z,5.03
2023-05-09T07:51:08.729Z,5.15
2023-05-09T07:56:14.188Z,5.05
2023-05-09T08:01:18.006Z,4.57
2023-05-09T08:06:22.161Z,5.40
2023-05-09T08:11:27.135Z,5.13
2023-05-09T08:16:31.220Z,7.03
2023-05-09T08:21:35.051Z,6.63
2023-05-09T08:26:39.268Z,6.10
2023-05-09T08:31:43.304Z,5.90
2023-05-09T08:36:47.810Z,5.90
2023-05-09T08:41:52.919Z,4.85
2023-05-09T08:47:02.120Z,4.82
2023-05-09T08:52:06.479Z,4.85
2023-05-09T08:57:10.598Z,5.60
2023-05-09T09:02:15.936Z,5.78
2023-05-09T09:07:21.726Z,5.72
2023-05-09T09:12:25.803Z,8.10
2023-05-09T09:17:31.503Z,7.35
2023-05-09T09:22:37.709Z,9.18
2023-05-09T09:27:43.013Z,9.48
2023-05-09T09:32:47.349Z,6.28
2023-05-09T09:38:00.125Z,6.13
2023-05-09T09:43:10.588Z,7.00
2023-05-09T09:53:21.436Z,8.63
2023-05-09T09:58:28.112Z,6.10
2023-05-09T10:03:40.202Z,7.05
2023-05-09T10:08:50.070Z,7.32
2023-05-09T10:13:54.296Z,7.65
2023-05-09T10:18:58.331Z,9.13
2023-05-09T10:24:04.451Z,11.05
2023-05-09T10:29:13.895Z,12.65
2023-05-09T10:34:19.017Z,11.00
2023-05-09T10:39:24.361Z,8.90
2023-05-09T10:44:28.313Z,8.70
2023-05-09T10:49:34.933Z,8.40
2023-05-09T10:54:40.906Z,10.25
2023-05-09T10:59:45.929Z,7.40
2023-05-09T11:04:50.116Z,7.63
2023-05-09T11:10:07.209Z,7.55
2023-05-09T11:15:12.028Z,8.02
2023-05-09T11:20:16.646Z,8.30
2023-05-09T11:25:29.980Z,8.60
2023-05-09T11:30:43.452Z,7.82
2023-05-09T11:35:47.887Z,6.72
2023-05-09T11:40:52.980Z,9.38
2023-05-09T11:45:58.268Z,11.82
2023-05-09T11:51:04.392Z,12.60
2023-05-09T11:56:08.472Z,10.48
2023-05-09T12:01:13.567Z,9.80
2023-05-09T12:06:18.847Z,9.55
2023-05-09T12:11:24.736Z,11.10
2023-05-09T12:16:28.676Z,12.10
2023-05-09T12:21:32.612Z,13.80
2023-05-09T12:26:36.927Z,12.80
2023-05-09T12:31:43.051Z,14.15
2023-05-09T12:36:52.419Z,16.55
2023-05-09T12:42:33.397Z,19.13
2023-05-09T12:47:42.900Z,22.55
2023-05-09T12:53:02.887Z,25.95
2023-05-09T12:58:07.894Z,24.52
2023-05-09T13:03:38.708Z,30.35
2023-05-09T13:08:42.880Z,30.88
2023-05-09T13:13:46.812Z,30.88
2023-05-09T13:18:50.965Z,31.08
2023-05-09T13:23:55.008Z,29.95
2023-05-09T13:28:59.396Z,24.70
2023-05-09T13:34:03.484Z,23.13
2023-05-09T13:39:07.348Z,16.45
2023-05-09T13:44:11.269Z,15.80
2023-05-09T13:49:15.256Z,15.57
2023-05-09T13:54:21.018Z,12.68
2023-05-09T13:59:25.036Z,13.90
2023-05-09T14:04:30.617Z,19.13
2023-05-09T14:09:40.809Z,19.10
2023-05-09T14:14:44.661Z,25.33
2023-05-09T14:19:48.826Z,48.85
2023-05-09T14:24:53.651Z,27.77
2023-05-09T14:29:58.047Z,21.88
2023-05-09T14:35:02.289Z,12.63
2023-05-09T14:40:08.122Z,13.32
2023-05-09T14:45:14.222Z,26.80
2023-05-09T14:50:18.269Z,30.27
2023-05-09T14:55:23.991Z,36.67
2023-05-09T15:00:29.230Z,39.83
2023-05-09T15:05:33.608Z,38.50
2023-05-09T15:10:37.557Z,19.67
2023-05-09T15:15:42.532Z,10.30
2023-05-09T15:20:46.547Z,6.00
2023-05-09T15:25:50.673Z,5.10
2023-05-09T15:30:55.045Z,4.68
2023-05-09T15:36:04.152Z,4.65
2023-05-09T15:41:09.976Z,5.10
2023-05-09T15:46:15.912Z,5.22
2023-05-09T15:51:20.045Z,3.35
2023-05-09T15:56:24.317Z,3.88
2023-05-09T16:01:28.344Z,2.90
2023-05-09T16:06:34.378Z,2.30
2023-05-09T16:11:38.495Z,2.20
2023-05-09T16:16:43.504Z,2.67
2023-05-09T16:21:47.984Z,2.67
2023-05-09T16:26:52.029Z,2.47
2023-05-09T16:31:56.023Z,2.50
2023-05-09T16:37:00.145Z,2.80
2023-05-09T16:42:05.007Z,2.95
2023-05-09T16:47:08.958Z,2.70
2023-05-09T16:52:13.227Z,2.70
2023-05-09T16:57:17.766Z,2.70
2023-05-09T17:02:21.814Z,3.00
2023-05-09T17:07:25.772Z,3.03
2023-05-09T17:12:29.926Z,2.72
2023-05-09T17:17:34.388Z,2.80
2023-05-09T17:22:39.086Z,2.70
2023-05-09T17:27:43.406Z,2.50
2023-05-09T17:32:47.297Z,2.10
2023-05-09T17:37:51.826Z,2.10
2023-05-09T17:42:55.700Z,2.40
2023-05-09T17:48:00.799Z,2.50
2023-05-09T17:53:04.929Z,2.63
2023-05-09T17:58:09.214Z,2.33
2023-05-09T18:03:13.427Z,2.55
2023-05-09T18:08:17.960Z,2.50
2023-05-09T18:13:25.314Z,2.40
2023-05-09T18:18:31.878Z,2.40
2023-05-09T18:23:36.037Z,2.83
2023-05-09T18:28:40.527Z,2.83
2023-05-09T18:33:45.122Z,3.08
2023-05-09T18:38:48.944Z,2.63
2023-05-09T18:43:53.964Z,2.50
2023-05-09T18:48:57.984Z,2.83
2023-05-09T18:54:02.053Z,3.08
2023-05-09T18:59:07.517Z,2.90
2023-05-09T19:04:11.668Z,2.88
2023-05-09T19:09:15.655Z,2.50
2023-05-09T19:14:20.178Z,2.88
2023-05-09T19:19:24.135Z,3.38
2023-05-09T19:24:28.782Z,2.75
2023-05-09T19:29:32.790Z,2.53
2023-05-09T19:34:37.402Z,2.38
2023-05-09T19:39:41.349Z,3.10
2023-05-09T19:44:47.379Z,2.67
2023-05-09T19:49:51.491Z,2.70
2023-05-09T19:54:56.031Z,2.58
2023-05-09T19:59:59.889Z,2.17
2023-05-09T20:05:04.539Z,2.35
2023-05-09T20:10:09.703Z,3.28
2023-05-09T20:15:14.441Z,2.40
2023-05-09T20:20:19.097Z,2.22
2023-05-09T20:25:23.941Z,2.10
2023-05-09T20:30:28.028Z,2.08
2023-05-09T20:35:32.251Z,2.13
2023-05-09T20:40:36.750Z,2.20
2023-05-09T20:45:40.842Z,2.50
2023-05-09T20:50:44.924Z,2.22
2023-05-09T20:55:50.429Z,2.13
2023-05-09T21:00:55.032Z,2.67
2023-05-09T21:05:59.621Z,3.25
2023-05-09T21:11:03.740Z,2.65
2023-05-09T21:16:07.764Z,3.25
2023-05-09T21:21:12.118Z,3.00
2023-05-09T21:26:17.210Z,2.60
2023-05-09T21:31:21.516Z,2.80
2023-05-09T21:36:25.919Z,2.50
2023-05-09T21:41:29.733Z,2.53
2023-05-09T21:46:34.421Z,2.53
2023-05-09T21:51:38.572Z,2.40
2023-05-09T21:56:43.255Z,2.60
2023-05-09T22:01:47.289Z,3.20
2023-05-09T22:06:51.423Z,2.88
2023-05-09T22:11:55.437Z,2.58
2023-05-09T22:17:00.130Z,2.80
2023-05-09T22:22:04.307Z,2.67
2023-05-09T22:27:12.263Z,2.95
2023-05-09T22:32:16.236Z,2.50
2023-05-09T22:37:20.249Z,2.58
2023-05-09T22:42:24.263Z,2.88
2023-05-09T22:47:28.168Z,3.30
2023-05-09T22:52:32.363Z,2.88
2023-05-09T22:57:36.500Z,2.80
2023-05-09T23:02:40.666Z,3.35
2023-05-09T23:07:45.712Z,2.40
2023-05-09T23:12:49.595Z,2.22
2023-05-09T23:17:53.702Z,2.88
2023-05-09T23:22:57.843Z,2.40
2023-05-09T23:28:02.067Z,2.72
2023-05-09T23:33:06.115Z,2.70
2023-05-09T23:38:10.285Z,2.80
2023-05-09T23:43:14.630Z,2.60
2023-05-09T23:48:18.406Z,3.08
2023-05-09T23:53:22.705Z,3.30
2023-05-09T23:58:26.497Z,3.17
